sensor_id;sensor_type;location;lat;lon;timestamp;pressure;altitude;pressure_sealevel;temperature;humidity
14383;BME280;7275;50.328;8.720;2023-02-18T00:00:07;100432.63;;;17.25;50.49
14383;BME280;7275;50.328;8.720;2023-02-18T00:02:36;100428.31;;;17.23;50.38
14383;BME280;7275;50.328;8.720;2023-02-18T00:05:06;100436.41;;;17.21;50.43
14383;BME280;7275;50.328;8.720;2023-02-18T00:07:34;100427.59;;;17.19;50.29
14383;BME280;7275;50.328;8.720;2023-02-18T00:10:02;100421.56;;;17.16;50.38
14383;BME280;7275;50.328;8.720;2023-02-18T00:12:30;100426.91;;;17.16;50.34
14383;BME280;7275;50.328;8.720;2023-02-18T00:14:58;100424.22;;;17.16;50.36
14383;BME280;7275;50.328;8.720;2023-02-18T00:17:27;100429.56;;;17.16;50.27
14383;BME280;7275;50.328;8.720;2023-02-18T00:19:55;100425.16;;;17.15;50.45
14383;BME280;7275;50.328;8.720;2023-02-18T00:22:24;100426.22;;;17.12;50.45
14383;BME280;7275;50.328;8.720;2023-02-18T00:24:52;100444.81;;;17.14;50.30
14383;BME280;7275;50.328;8.720;2023-02-18T00:27:20;100437.72;;;17.13;50.35
14383;BME280;7275;50.328;8.720;2023-02-18T00:29:47;100435.06;;;17.13;50.45
14383;BME280;7275;50.328;8.720;2023-02-18T00:32:15;100437.72;;;17.13;50.51
14383;BME280;7275;50.328;8.720;2023-02-18T00:34:42;100439.56;;;17.12;50.54
14383;BME280;7275;50.328;8.720;2023-02-18T00:37:10;100436.91;;;17.12;50.30
14383;BME280;7275;50.328;8.720;2023-02-18T00:39:39;100440.41;;;17.13;50.42
14383;BME280;7275;50.328;8.720;2023-02-18T00:42:07;100434.22;;;17.12;50.14
14383;BME280;7275;50.328;8.720;2023-02-18T00:44:34;100436.03;;;17.12;50.18
14383;BME280;7275;50.328;8.720;2023-02-18T00:47:02;100434.28;;;17.11;50.40
14383;BME280;7275;50.328;8.720;2023-02-18T00:49:29;100444.03;;;17.12;50.41
14383;BME280;7275;50.328;8.720;2023-02-18T00:51:57;100435.25;;;17.10;50.31
14383;BME280;7275;50.328;8.720;2023-02-18T00:54:25;100430.81;;;17.09;50.35
14383;BME280;7275;50.328;8.720;2023-02-18T00:56:54;100434.38;;;17.09;50.34
14383;BME280;7275;50.328;8.720;2023-02-18T00:59:21;100435.31;;;17.08;50.34
14383;BME280;7275;50.328;8.720;2023-02-18T01:01:49;100440.69;;;17.08;50.26
14383;BME280;7275;50.328;8.720;2023-02-18T01:04:16;100435.31;;;17.08;50.50
14383;BME280;7275;50.328;8.720;2023-02-18T01:06:44;100441.69;;;17.06;50.56
14383;BME280;7275;50.328;8.720;2023-02-18T01:09:12;100428.41;;;17.04;50.46
14383;BME280;7275;50.328;8.720;2023-02-18T01:11:39;100422.22;;;17.04;50.39
14383;BME280;7275;50.328;8.720;2023-02-18T01:14:08;100428.47;;;17.03;50.59
14383;BME280;7275;50.328;8.720;2023-02-18T01:16:36;100417.88;;;17.01;50.59
14383;BME280;7275;50.328;8.720;2023-02-18T01:19:03;100423.31;;;17.00;50.60
14383;BME280;7275;50.328;8.720;2023-02-18T01:21:31;100427.78;;;16.99;50.52
14383;BME280;7275;50.328;8.720;2023-02-18T01:23:58;100427.78;;;16.99;50.48
14383;BME280;7275;50.328;8.720;2023-02-18T01:26:26;100422.44;;;16.99;50.64
14383;BME280;7275;50.328;8.720;2023-02-18T01:28:54;100418.91;;;16.99;50.56
14383;BME280;7275;50.328;8.720;2023-02-18T01:31:22;100415.44;;;16.97;50.58
14383;BME280;7275;50.328;8.720;2023-02-18T01:33:50;100414.56;;;16.96;50.61
14383;BME280;7275;50.328;8.720;2023-02-18T01:36:18;100423.47;;;16.97;50.46
14383;BME280;7275;50.328;8.720;2023-02-18T01:38:45;100402.09;;;16.97;50.46
14383;BME280;7275;50.328;8.720;2023-02-18T01:41:13;100395.03;;;16.96;50.44
14383;BME280;7275;50.328;8.720;2023-02-18T01:43:40;100391.56;;;16.94;50.54
14383;BME280;7275;50.328;8.720;2023-02-18T01:46:14;100388.91;;;16.94;50.47
14383;BME280;7275;50.328;8.720;2023-02-18T01:48:46;100398.72;;;16.93;50.35
14383;BME280;7275;50.328;8.720;2023-02-18T01:51:17;100392.50;;;16.93;50.31
14383;BME280;7275;50.328;8.720;2023-02-18T01:53:50;100384.59;;;16.91;50.52
14383;BME280;7275;50.328;8.720;2023-02-18T01:56:23;100380.94;;;16.92;50.33
14383;BME280;7275;50.328;8.720;2023-02-18T01:58:53;100388.13;;;16.92;50.26
14383;BME280;7275;50.328;8.720;2023-02-18T02:01:22;100393.47;;;16.92;50.39
14383;BME280;7275;50.328;8.720;2023-02-18T02:03:51;100388.28;;;16.89;50.31
14383;BME280;7275;50.328;8.720;2023-02-18T02:06:21;100386.63;;;16.86;50.56
14383;BME280;7275;50.328;8.720;2023-02-18T02:08:51;100376.03;;;16.85;50.45
14383;BME280;7275;50.328;8.720;2023-02-18T02:11:28;100360.94;;;16.84;50.41
14383;BME280;7275;50.328;8.720;2023-02-18T02:14:15;100369.13;;;16.81;50.47
14383;BME280;7275;50.328;8.720;2023-02-18T02:16:54;100366.53;;;16.79;50.51
14383;BME280;7275;50.328;8.720;2023-02-18T02:19:54;100366.78;;;16.74;50.33
14383;BME280;7275;50.328;8.720;2023-02-18T02:22:54;100374.84;;;16.73;50.45
14383;BME280;7275;50.328;8.720;2023-02-18T02:25:44;100377.69;;;16.70;50.42
14383;BME280;7275;50.328;8.720;2023-02-18T02:28:53;100368.78;;;16.69;50.34
14383;BME280;7275;50.328;8.720;2023-02-18T02:31:52;100363.53;;;16.68;50.37
14383;BME280;7275;50.328;8.720;2023-02-18T02:34:37;100367.09;;;16.68;50.35
14383;BME280;7275;50.328;8.720;2023-02-18T02:37:12;100355.63;;;16.66;50.37
14383;BME280;7275;50.328;8.720;2023-02-18T02:39:50;100354.53;;;16.70;50.42
14383;BME280;7275;50.328;8.720;2023-02-18T02:42:28;100359.84;;;16.70;50.26
14383;BME280;7275;50.328;8.720;2023-02-18T02:45:05;100367.88;;;16.70;50.40
14383;BME280;7275;50.328;8.720;2023-02-18T02:47:42;100351.06;;;16.68;50.41
14383;BME280;7275;50.328;8.720;2023-02-18T02:50:18;100346.56;;;16.69;50.57
14383;BME280;7275;50.328;8.720;2023-02-18T02:52:49;100358.03;;;16.71;50.49
14383;BME280;7275;50.328;8.720;2023-02-18T02:55:18;100349.00;;;16.73;50.50
14383;BME280;7275;50.328;8.720;2023-02-18T02:57:49;100362.31;;;16.75;50.37
14383;BME280;7275;50.328;8.720;2023-02-18T03:00:19;100355.13;;;16.75;50.67
14383;BME280;7275;50.328;8.720;2023-02-18T03:06:01;100359.44;;;16.78;50.63
14383;BME280;7275;50.328;8.720;2023-02-18T03:08:40;100353.09;;;16.81;50.72
14383;BME280;7275;50.328;8.720;2023-02-18T03:11:13;100347.75;;;16.81;50.65
14383;BME280;7275;50.328;8.720;2023-02-18T03:13:52;100357.56;;;16.80;50.75
14383;BME280;7275;50.328;8.720;2023-02-18T03:16:26;100356.78;;;16.78;50.57
14383;BME280;7275;50.328;8.720;2023-02-18T03:19:01;100354.19;;;16.76;50.78
14383;BME280;7275;50.328;8.720;2023-02-18T03:21:36;100361.44;;;16.74;50.56
14383;BME280;7275;50.328;8.720;2023-02-18T03:24:11;100342.66;;;16.76;50.68
14383;BME280;7275;50.328;8.720;2023-02-18T03:26:44;100340.84;;;16.76;50.86
14383;BME280;7275;50.328;8.720;2023-02-18T03:29:14;100334.72;;;16.74;50.52
14383;BME280;7275;50.328;8.720;2023-02-18T03:31:46;100334.63;;;16.76;50.84
14383;BME280;7275;50.328;8.720;2023-02-18T03:34:19;100339.06;;;16.77;50.77
14383;BME280;7275;50.328;8.720;2023-02-18T03:36:50;100333.53;;;16.80;50.75
14383;BME280;7275;50.328;8.720;2023-02-18T03:39:20;100344.06;;;16.83;50.63
14383;BME280;7275;50.328;8.720;2023-02-18T03:41:50;100339.50;;;16.85;50.70
14383;BME280;7275;50.328;8.720;2023-02-18T03:44:17;100354.56;;;16.86;50.54
14383;BME280;7275;50.328;8.720;2023-02-18T03:46:45;100350.09;;;16.87;50.59
14383;BME280;7275;50.328;8.720;2023-02-18T03:49:14;100350.00;;;16.88;50.72
14383;BME280;7275;50.328;8.720;2023-02-18T03:51:42;100334.94;;;16.87;50.69
14383;BME280;7275;50.328;8.720;2023-02-18T03:54:11;100341.94;;;16.90;50.37
14383;BME280;7275;50.328;8.720;2023-02-18T03:56:40;100345.38;;;16.92;50.61
14383;BME280;7275;50.328;8.720;2023-02-18T03:59:08;100337.38;;;16.92;50.52
14383;BME280;7275;50.328;8.720;2023-02-18T04:01:35;100335.50;;;16.94;50.49
14383;BME280;7275;50.328;8.720;2023-02-18T04:04:03;100329.09;;;16.96;50.35
14383;BME280;7275;50.328;8.720;2023-02-18T04:06:31;100342.38;;;16.98;50.46
14383;BME280;7275;50.328;8.720;2023-02-18T04:08:59;100332.53;;;16.98;50.54
14383;BME280;7275;50.328;8.720;2023-02-18T04:11:29;100322.91;;;16.96;50.65
14383;BME280;7275;50.328;8.720;2023-02-18T04:13:56;100337.06;;;16.98;50.58
14383;BME280;7275;50.328;8.720;2023-02-18T04:16:24;100339.78;;;16.96;50.45
14383;BME280;7275;50.328;8.720;2023-02-18T04:18:51;100335.31;;;16.97;50.62
14383;BME280;7275;50.328;8.720;2023-02-18T04:21:19;100323.75;;;16.96;50.53
14383;BME280;7275;50.328;8.720;2023-02-18T04:23:47;100319.28;;;16.97;50.62
14383;BME280;7275;50.328;8.720;2023-02-18T04:26:14;100315.75;;;16.96;50.72
14383;BME280;7275;50.328;8.720;2023-02-18T04:28:43;100316.69;;;16.95;50.64
14383;BME280;7275;50.328;8.720;2023-02-18T04:31:11;100327.47;;;16.94;50.59
14383;BME280;7275;50.328;8.720;2023-02-18T04:33:39;100314.28;;;16.91;50.85
14383;BME280;7275;50.328;8.720;2023-02-18T04:36:07;100322.38;;;16.89;50.72
14383;BME280;7275;50.328;8.720;2023-02-18T04:38:35;100317.19;;;16.86;50.93
14383;BME280;7275;50.328;8.720;2023-02-18T04:41:03;100314.69;;;16.83;51.03
14383;BME280;7275;50.328;8.720;2023-02-18T04:43:31;100306.81;;;16.80;51.06
14383;BME280;7275;50.328;8.720;2023-02-18T04:46:00;100309.72;;;16.75;51.13
14383;BME280;7275;50.328;8.720;2023-02-18T04:48:27;100311.72;;;16.72;51.29
14383;BME280;7275;50.328;8.720;2023-02-18T04:50:55;100312.97;;;16.65;51.52
14383;BME280;7275;50.328;8.720;2023-02-18T04:53:22;100302.69;;;16.57;51.44
14383;BME280;7275;50.328;8.720;2023-02-18T04:55:51;100300.44;;;16.50;51.68
14383;BME280;7275;50.328;8.720;2023-02-18T04:58:19;100308.69;;;16.44;51.78
14383;BME280;7275;50.328;8.720;2023-02-18T05:00:47;100312.41;;;16.41;51.88
14383;BME280;7275;50.328;8.720;2023-02-18T05:03:16;100303.84;;;16.35;51.96
14383;BME280;7275;50.328;8.720;2023-02-18T05:05:44;100298.53;;;16.35;52.18
14383;BME280;7275;50.328;8.720;2023-02-18T05:08:12;100299.63;;;16.31;52.00
14383;BME280;7275;50.328;8.720;2023-02-18T05:10:41;100296.09;;;16.30;52.26
14383;BME280;7275;50.328;8.720;2023-02-18T05:13:09;100297.09;;;16.28;52.35
14383;BME280;7275;50.328;8.720;2023-02-18T05:15:36;100298.97;;;16.26;52.31
14383;BME280;7275;50.328;8.720;2023-02-18T05:18:04;100292.78;;;16.25;52.37
14383;BME280;7275;50.328;8.720;2023-02-18T05:20:34;100285.81;;;16.23;52.71
14383;BME280;7275;50.328;8.720;2023-02-18T05:23:02;100278.66;;;16.23;52.60
14383;BME280;7275;50.328;8.720;2023-02-18T05:25:29;100273.31;;;16.23;52.68
14383;BME280;7275;50.328;8.720;2023-02-18T05:27:57;100277.81;;;16.23;52.74
14383;BME280;7275;50.328;8.720;2023-02-18T05:30:25;100279.59;;;16.22;52.65
14383;BME280;7275;50.328;8.720;2023-02-18T05:32:52;100269.03;;;16.21;52.83
14383;BME280;7275;50.328;8.720;2023-02-18T05:35:20;100269.84;;;16.21;52.75
14383;BME280;7275;50.328;8.720;2023-02-18T05:37:49;100265.47;;;16.20;52.88
14383;BME280;7275;50.328;8.720;2023-02-18T05:40:16;100262.81;;;16.20;52.81
14383;BME280;7275;50.328;8.720;2023-02-18T05:42:44;100246.91;;;16.19;52.90
14383;BME280;7275;50.328;8.720;2023-02-18T05:45:12;100250.41;;;16.19;53.06
14383;BME280;7275;50.328;8.720;2023-02-18T05:47:39;100243.41;;;16.17;52.97
14383;BME280;7275;50.328;8.720;2023-02-18T05:50:07;100247.97;;;16.15;53.00
14383;BME280;7275;50.328;8.720;2023-02-18T05:52:35;100250.91;;;16.10;52.87
14383;BME280;7275;50.328;8.720;2023-02-18T05:55:04;100253.69;;;16.07;53.25
14383;BME280;7275;50.328;8.720;2023-02-18T05:57:32;100239.50;;;16.07;53.27
14383;BME280;7275;50.328;8.720;2023-02-18T06:00:00;100239.50;;;16.07;53.29
14383;BME280;7275;50.328;8.720;2023-02-18T06:02:27;100245.78;;;16.06;53.43
14383;BME280;7275;50.328;8.720;2023-02-18T06:04:55;100243.22;;;16.04;53.61
14383;BME280;7275;50.328;8.720;2023-02-18T06:07:22;100237.78;;;16.06;53.34
14383;BME280;7275;50.328;8.720;2023-02-18T06:09:50;100231.59;;;16.05;53.55
14383;BME280;7275;50.328;8.720;2023-02-18T06:12:19;100242.25;;;16.05;53.51
14383;BME280;7275;50.328;8.720;2023-02-18T06:14:46;100236.81;;;16.07;53.57
14383;BME280;7275;50.328;8.720;2023-02-18T06:17:14;100232.44;;;16.06;53.64
14383;BME280;7275;50.328;8.720;2023-02-18T06:19:44;100240.38;;;16.07;53.90
14383;BME280;7275;50.328;8.720;2023-02-18T06:22:12;100242.09;;;16.08;53.63
14383;BME280;7275;50.328;8.720;2023-02-18T06:24:40;100232.28;;;16.09;53.92
14383;BME280;7275;50.328;8.720;2023-02-18T06:27:07;100234.88;;;16.10;53.80
14383;BME280;7275;50.328;8.720;2023-02-18T06:29:36;100238.41;;;16.11;53.85
14383;BME280;7275;50.328;8.720;2023-02-18T06:32:04;100236.59;;;16.11;53.95
14383;BME280;7275;50.328;8.720;2023-02-18T06:34:32;100233.94;;;16.11;54.10
14383;BME280;7275;50.328;8.720;2023-02-18T06:36:59;100232.03;;;16.13;54.13
14383;BME280;7275;50.328;8.720;2023-02-18T06:39:27;100232.13;;;16.12;54.08
14383;BME280;7275;50.328;8.720;2023-02-18T06:41:55;100223.25;;;16.11;54.17
14383;BME280;7275;50.328;8.720;2023-02-18T06:44:22;100230.34;;;16.12;54.13
14383;BME280;7275;50.328;8.720;2023-02-18T06:46:51;100226.81;;;16.12;54.19
14383;BME280;7275;50.328;8.720;2023-02-18T06:49:19;100221.47;;;16.12;54.22
14383;BME280;7275;50.328;8.720;2023-02-18T06:51:47;100224.13;;;16.12;54.25
14383;BME280;7275;50.328;8.720;2023-02-18T06:54:14;100217.78;;;16.14;54.11
14383;BME280;7275;50.328;8.720;2023-02-18T06:56:42;100217.69;;;16.16;54.25
14383;BME280;7275;50.328;8.720;2023-02-18T06:59:09;100208.72;;;16.17;54.32
14383;BME280;7275;50.328;8.720;2023-02-18T07:01:37;100213.16;;;16.18;54.34
14383;BME280;7275;50.328;8.720;2023-02-18T07:04:06;100206.00;;;16.18;54.31
14383;BME280;7275;50.328;8.720;2023-02-18T07:06:34;100215.81;;;16.18;54.33
14383;BME280;7275;50.328;8.720;2023-02-18T07:09:03;100208.69;;;16.18;54.40
14383;BME280;7275;50.328;8.720;2023-02-18T07:11:31;100192.66;;;16.18;54.32
14383;BME280;7275;50.328;8.720;2023-02-18T07:13:58;100194.31;;;16.21;54.29
14383;BME280;7275;50.328;8.720;2023-02-18T07:16:26;100198.69;;;16.22;54.28
14383;BME280;7275;50.328;8.720;2023-02-18T07:18:54;100198.59;;;16.23;54.47
14383;BME280;7275;50.328;8.720;2023-02-18T07:21:23;100195.88;;;16.25;54.27
14383;BME280;7275;50.328;8.720;2023-02-18T07:23:50;100196.66;;;16.27;54.19
14383;BME280;7275;50.328;8.720;2023-02-18T07:26:19;100180.47;;;16.30;54.29
14383;BME280;7275;50.328;8.720;2023-02-18T07:28:46;100191.06;;;16.31;54.07
14383;BME280;7275;50.328;8.720;2023-02-18T07:31:14;100185.72;;;16.31;53.99
14383;BME280;7275;50.328;8.720;2023-02-18T07:33:43;100183.94;;;16.32;54.18
14383;BME280;7275;50.328;8.720;2023-02-18T07:36:10;100187.47;;;16.32;54.39
14383;BME280;7275;50.328;8.720;2023-02-18T07:38:39;100183.78;;;16.35;54.32
14383;BME280;7275;50.328;8.720;2023-02-18T07:41:19;100194.44;;;16.35;54.30
14383;BME280;7275;50.328;8.720;2023-02-18T07:43:47;100186.25;;;16.38;54.18
14383;BME280;7275;50.328;8.720;2023-02-18T07:46:15;100184.38;;;16.40;53.84
14383;BME280;7275;50.328;8.720;2023-02-18T07:48:43;100187.00;;;16.41;53.92
14383;BME280;7275;50.328;8.720;2023-02-18T07:51:11;100185.09;;;16.43;53.66
14383;BME280;7275;50.328;8.720;2023-02-18T07:53:42;100172.59;;;16.44;53.65
14383;BME280;7275;50.328;8.720;2023-02-18T07:56:09;100180.34;;;16.48;53.61
14383;BME280;7275;50.328;8.720;2023-02-18T07:58:38;100182.91;;;16.51;53.50
14383;BME280;7275;50.328;8.720;2023-02-18T08:01:08;100181.03;;;16.53;53.50
14383;BME280;7275;50.328;8.720;2023-02-18T08:03:36;100174.66;;;16.56;53.31
14383;BME280;7275;50.328;8.720;2023-02-18T08:06:04;100175.44;;;16.58;53.23
14383;BME280;7275;50.328;8.720;2023-02-18T08:08:33;100191.38;;;16.59;53.22
14383;BME280;7275;50.328;8.720;2023-02-18T08:11:04;100188.59;;;16.61;53.01
14383;BME280;7275;50.328;8.720;2023-02-18T08:13:44;100198.34;;;16.62;52.92
14383;BME280;7275;50.328;8.720;2023-02-18T08:16:12;100208.16;;;16.61;53.13
14383;BME280;7275;50.328;8.720;2023-02-18T08:18:40;100197.63;;;16.58;52.81
14383;BME280;7275;50.328;8.720;2023-02-18T08:21:08;100202.91;;;16.60;52.87
14383;BME280;7275;50.328;8.720;2023-02-18T08:23:35;100207.38;;;16.59;52.79
14383;BME280;7275;50.328;8.720;2023-02-18T08:26:05;100220.72;;;16.59;52.74
14383;BME280;7275;50.328;8.720;2023-02-18T08:28:33;100214.47;;;16.60;52.81
14383;BME280;7275;50.328;8.720;2023-02-18T08:31:01;100215.25;;;16.62;52.47
14383;BME280;7275;50.328;8.720;2023-02-18T08:33:29;100216.94;;;16.63;52.38
14383;BME280;7275;50.328;8.720;2023-02-18T08:35:56;100229.28;;;16.66;52.36
14383;BME280;7275;50.328;8.720;2023-02-18T08:38:24;100221.34;;;16.64;52.16
14383;BME280;7275;50.328;8.720;2023-02-18T08:41:01;100221.41;;;16.63;52.36
14383;BME280;7275;50.328;8.720;2023-02-18T08:43:30;100225.91;;;16.62;52.09
14383;BME280;7275;50.328;8.720;2023-02-18T08:45:58;100218.84;;;16.61;51.93
14383;BME280;7275;50.328;8.720;2023-02-18T08:48:27;100203.84;;;16.59;51.81
14383;BME280;7275;50.328;8.720;2023-02-18T08:50:55;100210.97;;;16.58;51.99
14383;BME280;7275;50.328;8.720;2023-02-18T08:53:23;100208.25;;;16.60;51.77
14383;BME280;7275;50.328;8.720;2023-02-18T08:55:50;100203.69;;;16.62;51.91
14383;BME280;7275;50.328;8.720;2023-02-18T08:58:18;100206.19;;;16.65;51.40
14383;BME280;7275;50.328;8.720;2023-02-18T09:00:47;100229.09;;;16.69;51.49
14383;BME280;7275;50.328;8.720;2023-02-18T09:03:15;100215.69;;;16.70;51.27
14383;BME280;7275;50.328;8.720;2023-02-18T09:05:42;100212.81;;;16.73;51.28
14383;BME280;7275;50.328;8.720;2023-02-18T09:08:10;100208.13;;;16.78;51.15
14383;BME280;7275;50.328;8.720;2023-02-18T09:10:37;100214.22;;;16.81;51.15
14383;BME280;7275;50.328;8.720;2023-02-18T09:13:05;100212.16;;;16.86;51.24
14383;BME280;7275;50.328;8.720;2023-02-18T09:15:33;100215.53;;;16.89;50.94
14383;BME280;7275;50.328;8.720;2023-02-18T09:18:02;100206.41;;;16.93;50.58
14383;BME280;7275;50.328;8.720;2023-02-18T09:20:29;100209.00;;;16.95;50.49
14383;BME280;7275;50.328;8.720;2023-02-18T09:22:57;100201.75;;;16.97;50.34
14383;BME280;7275;50.328;8.720;2023-02-18T09:25:26;100191.84;;;16.99;50.13
14383;BME280;7275;50.328;8.720;2023-02-18T09:27:53;100206.84;;;17.01;49.91
14383;BME280;7275;50.328;8.720;2023-02-18T09:30:21;100216.50;;;17.04;49.70
14383;BME280;7275;50.328;8.720;2023-02-18T09:32:49;100217.38;;;17.04;49.52
14383;BME280;7275;50.328;8.720;2023-02-18T09:35:18;100213.75;;;17.05;49.57
14383;BME280;7275;50.328;8.720;2023-02-18T09:37:46;100231.56;;;17.05;49.51
14383;BME280;7275;50.328;8.720;2023-02-18T09:40:23;100245.72;;;17.07;49.36
14383;BME280;7275;50.328;8.720;2023-02-18T09:42:54;100222.78;;;17.03;49.04
14383;BME280;7275;50.328;8.720;2023-02-18T09:45:22;100246.75;;;17.04;49.34
14383;BME280;7275;50.328;8.720;2023-02-18T09:47:51;100244.16;;;17.03;49.12
14383;BME280;7275;50.328;8.720;2023-02-18T09:50:24;100245.81;;;17.05;48.92
14383;BME280;7275;50.328;8.720;2023-02-18T09:52:52;100242.25;;;17.05;48.84
14383;BME280;7275;50.328;8.720;2023-02-18T09:55:23;100235.97;;;17.06;48.80
14383;BME280;7275;50.328;8.720;2023-02-18T09:57:53;100219.09;;;17.05;48.72
14383;BME280;7275;50.328;8.720;2023-02-18T10:00:27;100227.97;;;17.06;48.75
14383;BME280;7275;50.328;8.720;2023-02-18T10:02:57;100238.56;;;17.07;48.63
14383;BME280;7275;50.328;8.720;2023-02-18T10:05:28;100219.94;;;17.06;48.49
14383;BME280;7275;50.328;8.720;2023-02-18T10:08:00;100232.69;;;17.01;48.40
14383;BME280;7275;50.328;8.720;2023-02-18T10:10:35;100223.66;;;17.03;48.45
14383;BME280;7275;50.328;8.720;2023-02-18T10:13:05;100230.78;;;17.03;48.58
14383;BME280;7275;50.328;8.720;2023-02-18T10:15:37;100208.41;;;17.05;48.50
14383;BME280;7275;50.328;8.720;2023-02-18T10:18:15;100210.03;;;17.08;48.41
14383;BME280;7275;50.328;8.720;2023-02-18T10:20:48;100205.38;;;17.11;48.42
14383;BME280;7275;50.328;8.720;2023-02-18T10:23:18;100208.84;;;17.13;48.17
14383;BME280;7275;50.328;8.720;2023-02-18T10:25:47;100200.72;;;17.15;48.09
14383;BME280;7275;50.328;8.720;2023-02-18T10:28:18;100201.69;;;17.14;47.90
14383;BME280;7275;50.328;8.720;2023-02-18T10:30:51;100205.22;;;17.14;48.01
14383;BME280;7275;50.328;8.720;2023-02-18T10:33:32;100221.16;;;17.16;47.99
14383;BME280;7275;50.328;8.720;2023-02-18T10:36:11;100209.59;;;17.15;47.89
14383;BME280;7275;50.328;8.720;2023-02-18T10:39:00;100219.34;;;17.16;48.06
14383;BME280;7275;50.328;8.720;2023-02-18T10:41:33;100203.31;;;17.16;48.08
14383;BME280;7275;50.328;8.720;2023-02-18T10:44:10;100215.81;;;17.16;47.96
14383;BME280;7275;50.328;8.720;2023-02-18T10:46:44;100193.56;;;17.15;47.87
14383;BME280;7275;50.328;8.720;2023-02-18T10:49:33;100201.59;;;17.15;47.93
14383;BME280;7275;50.328;8.720;2023-02-18T10:52:13;100203.59;;;17.12;47.88
14383;BME280;7275;50.328;8.720;2023-02-18T10:54:52;100199.00;;;17.14;47.86
14383;BME280;7275;50.328;8.720;2023-02-18T10:57:24;100203.47;;;17.13;48.08
14383;BME280;7275;50.328;8.720;2023-02-18T10:59:58;100205.22;;;17.14;48.04
14383;BME280;7275;50.328;8.720;2023-02-18T11:02:29;100203.38;;;17.15;48.15
14383;BME280;7275;50.328;8.720;2023-02-18T11:04:59;100214.38;;;17.10;48.25
14383;BME280;7275;50.328;8.720;2023-02-18T11:07:34;100194.78;;;17.10;48.47
14383;BME280;7275;50.328;8.720;2023-02-18T11:10:13;100204.34;;;17.14;48.71
14383;BME280;7275;50.328;8.720;2023-02-18T11:12:44;100190.41;;;17.24;48.76
14383;BME280;7275;50.328;8.720;2023-02-18T11:15:18;100171.34;;;17.30;48.80
14383;BME280;7275;50.328;8.720;2023-02-18T11:17:48;100177.28;;;17.35;48.67
14383;BME280;7275;50.328;8.720;2023-02-18T11:20:23;100173.56;;;17.38;48.64
14383;BME280;7275;50.328;8.720;2023-02-18T11:22:56;100168.41;;;17.35;48.57
14383;BME280;7275;50.328;8.720;2023-02-18T11:25:25;100171.16;;;17.33;48.46
14383;BME280;7275;50.328;8.720;2023-02-18T11:27:55;100175.91;;;17.28;48.33
14383;BME280;7275;50.328;8.720;2023-02-18T11:30:26;100170.72;;;17.25;48.26
14383;BME280;7275;50.328;8.720;2023-02-18T11:33:01;100179.88;;;17.21;48.15
14383;BME280;7275;50.328;8.720;2023-02-18T11:35:31;100172.03;;;17.18;48.20
14383;BME280;7275;50.328;8.720;2023-02-18T11:38:02;100172.09;;;17.17;48.14
14383;BME280;7275;50.328;8.720;2023-02-18T11:40:32;100146.44;;;17.14;48.23
14383;BME280;7275;50.328;8.720;2023-02-18T11:43:05;100142.81;;;17.15;48.40
14383;BME280;7275;50.328;8.720;2023-02-18T11:45:34;100142.81;;;17.15;48.44
14383;BME280;7275;50.328;8.720;2023-02-18T11:48:06;100149.19;;;17.13;48.20
14383;BME280;7275;50.328;8.720;2023-02-18T11:50:34;100140.41;;;17.11;48.03
14383;BME280;7275;50.328;8.720;2023-02-18T11:53:25;100125.44;;;17.08;48.11
14383;BME280;7275;50.328;8.720;2023-02-18T11:55:55;100120.91;;;17.09;48.02
14383;BME280;7275;50.328;8.720;2023-02-18T11:58:23;100111.72;;;17.14;48.13
14383;BME280;7275;50.328;8.720;2023-02-18T12:00:54;100097.13;;;17.20;48.30
14383;BME280;7275;50.328;8.720;2023-02-18T12:03:28;100099.34;;;17.27;48.21
14383;BME280;7275;50.328;8.720;2023-02-18T12:06:02;100101.59;;;17.35;47.82
14383;BME280;7275;50.328;8.720;2023-02-18T12:08:38;100100.34;;;17.40;47.89
14383;BME280;7275;50.328;8.720;2023-02-18T12:11:14;100097.25;;;17.48;47.77
14383;BME280;7275;50.328;8.720;2023-02-18T12:13:50;100116.41;;;17.56;47.68
14383;BME280;7275;50.328;8.720;2023-02-18T12:16:26;100104.78;;;17.71;47.90
14383;BME280;7275;50.328;8.720;2023-02-18T12:19:09;100112.75;;;17.87;47.80
14383;BME280;7275;50.328;8.720;2023-02-18T12:21:48;100117.44;;;17.97;47.39
14383;BME280;7275;50.328;8.720;2023-02-18T12:24:33;100121.19;;;18.09;47.27
14383;BME280;7275;50.328;8.720;2023-02-18T12:27:10;100124.44;;;18.14;47.08
14383;BME280;7275;50.328;8.720;2023-02-18T12:29:49;100108.19;;;18.17;46.88
14383;BME280;7275;50.328;8.720;2023-02-18T12:32:29;100107.13;;;18.19;46.93
14383;BME280;7275;50.328;8.720;2023-02-18T12:35:18;100091.78;;;18.23;46.84
14383;BME280;7275;50.328;8.720;2023-02-18T12:38:04;100091.38;;;18.29;46.84
14383;BME280;7275;50.328;8.720;2023-02-18T12:40:49;100122.91;;;18.24;46.94
14383;BME280;7275;50.328;8.720;2023-02-18T12:43:25;100115.53;;;18.27;47.10
14383;BME280;7275;50.328;8.720;2023-02-18T12:46:14;100111.56;;;18.49;47.25
14383;BME280;7275;50.328;8.720;2023-02-18T12:48:54;100120.66;;;18.60;47.06
14383;BME280;7275;50.328;8.720;2023-02-18T12:51:36;100111.41;;;18.92;47.09
14383;BME280;7275;50.328;8.720;2023-02-18T12:54:26;100145.50;;;19.17;46.58
14383;BME280;7275;50.328;8.720;2023-02-18T13:00:02;100113.78;;;19.24;46.20
14383;BME280;7275;50.328;8.720;2023-02-18T13:02:51;100110.34;;;19.36;46.27
14383;BME280;7275;50.328;8.720;2023-02-18T13:05:29;100112.94;;;19.37;45.90
14383;BME280;7275;50.328;8.720;2023-02-18T13:08:07;100123.06;;;19.32;45.74
14383;BME280;7275;50.328;8.720;2023-02-18T13:10:55;100119.25;;;19.22;45.72
14383;BME280;7275;50.328;8.720;2023-02-18T13:13:32;100123.41;;;19.13;45.78
14383;BME280;7275;50.328;8.720;2023-02-18T13:16:04;100115.88;;;19.06;45.94
14383;BME280;7275;50.328;8.720;2023-02-18T13:18:38;100113.59;;;19.00;46.05
14383;BME280;7275;50.328;8.720;2023-02-18T13:21:08;100118.59;;;18.92;45.82
14383;BME280;7275;50.328;8.720;2023-02-18T13:23:50;100119.38;;;18.80;45.89
14383;BME280;7275;50.328;8.720;2023-02-18T13:26:20;100113.66;;;18.72;46.23